Time;durP1;ratioP1;P1;durP2;ratioP2;P2;SDS_P1;SDS_P2;PMS_P1;PMS_P2;Temp;Humidity;BMP_temperature;BMP_pressure;BME280_temperature;BME280_humidity;BME280_pressure;Samples;Min_cycle;Max_cycle;Signal;HPM_P1;HPM_P2
2023/08/07 00:02:26;;;;;;;2.60;0.40;;;;;;;16.99;59.92;98321.25;4481782;32;33838;-84
2023/08/07 00:04:54;;;;;;;0.90;0.30;;;;;;;16.85;60.69;98330.38;4482122;32;33494;-90
2023/08/07 00:07:24;;;;;;;1.00;0.40;;;;;;;17.13;59.91;98330.53;4481475;32;34685;-90
2023/08/07 00:09:51;;;;;;;2.12;0.40;;;;;;;17.01;60.81;98321.22;4482873;32;34161;-85
2023/08/07 00:12:19;;;;;;;1.80;0.73;;;;;;;16.42;62.02;98326.19;4482359;32;34135;-84
2023/08/07 00:14:50;;;;;;;0.75;0.40;;;;;;;17.13;60.19;98320.03;4482560;32;33416;-85
2023/08/07 00:17:18;;;;;;;3.17;0.50;;;;;;;17.11;60.01;98321.84;4482057;32;33422;-85
2023/08/07 00:19:46;;;;;;;3.50;0.45;;;;;;;16.89;60.95;98311.91;4481565;32;34925;-86
2023/08/07 00:22:13;;;;;;;1.08;0.50;;;;;;;16.72;61.35;98319.34;4481283;32;34637;-88
2023/08/07 00:24:41;;;;;;;3.70;0.85;;;;;;;17.12;60.24;98310.44;4481547;32;34277;-83
2023/08/07 00:27:10;;;;;;;0.98;0.40;;;;;;;17.06;60.33;98313.25;4481540;32;33869;-86
2023/08/07 00:29:40;;;;;;;2.05;0.22;;;;;;;17.55;58.77;98324.97;4482225;32;34043;-85
2023/08/07 00:32:08;;;;;;;1.40;0.40;;;;;;;16.97;60.77;98314.34;4483328;32;34197;-86
2023/08/07 00:34:36;;;;;;;2.53;0.47;;;;;;;16.91;60.53;98310.13;4484119;32;32785;-83
2023/08/07 00:37:05;;;;;;;0.80;0.40;;;;;;;17.10;60.14;98322.75;4483811;32;33823;-86
2023/08/07 00:39:33;;;;;;;1.42;0.35;;;;;;;17.22;59.91;98330.25;4484368;32;34933;-84
2023/08/07 00:42:01;;;;;;;0.73;0.28;;;;;;;17.04;60.53;98326.38;4482998;32;34718;-83
2023/08/07 00:44:28;;;;;;;1.60;0.30;;;;;;;17.07;60.07;98328.06;4484197;32;33771;-85
2023/08/07 00:46:56;;;;;;;1.30;0.47;;;;;;;17.39;59.06;98325.41;4484240;32;33899;-83
2023/08/07 00:49:24;;;;;;;1.27;0.35;;;;;;;17.14;60.28;98324.37;4484612;32;34768;-85
2023/08/07 00:51:52;;;;;;;1.87;0.20;;;;;;;17.24;59.88;98318.84;4472341;32;34824;-84
2023/08/07 00:54:20;;;;;;;0.70;0.40;;;;;;;17.10;60.07;98318.34;4484136;32;33320;-83
2023/08/07 00:56:48;;;;;;;0.70;0.30;;;;;;;16.72;61.03;98314.97;4484521;32;34118;-85
2023/08/07 00:59:15;;;;;;;1.48;0.30;;;;;;;16.90;60.46;98313.66;4484076;32;33753;-87
2023/08/07 01:01:43;;;;;;;2.47;0.40;;;;;;;16.64;61.24;98316.91;4484119;32;33620;-86
2023/08/07 01:04:11;;;;;;;2.15;0.30;;;;;;;16.95;60.19;98305.69;4482908;32;33565;-86
2023/08/07 01:06:39;;;;;;;0.47;0.30;;;;;;;16.83;60.38;98314.72;4484396;32;34883;-85
2023/08/07 01:09:09;;;;;;;0.65;0.35;;;;;;;16.83;60.60;98317.34;4478471;32;34827;-84
2023/08/07 01:11:42;;;;;;;1.75;0.30;;;;;;;16.63;61.55;98322.16;4482677;32;34479;-84
2023/08/07 01:14:25;;;;;;;0.55;0.20;;;;;;;17.10;59.72;98312.25;4483148;32;33002;-84
2023/08/07 01:17:05;;;;;;;0.82;0.20;;;;;;;17.01;60.03;98318.63;4484291;32;34603;-88
2023/08/07 01:19:34;;;;;;;2.97;0.40;;;;;;;16.72;60.70;98329.81;4481960;32;34102;-87
2023/08/07 01:22:05;;;;;;;0.50;0.22;;;;;;;17.07;59.92;98325.44;4475384;32;33888;-88
2023/08/07 01:24:36;;;;;;;1.77;0.30;;;;;;;17.09;59.55;98318.41;4468466;32;33732;-89
2023/08/07 01:27:21;;;;;;;0.20;0.20;;;;;;;17.10;58.78;98335.84;4481134;32;33978;-85
2023/08/07 01:29:54;;;;;;;0.30;0.20;;;;;;;16.95;58.99;98334.47;4482835;32;35042;-84
2023/08/07 01:32:43;;;;;;;0.30;0.20;;;;;;;17.02;58.98;98342.13;4483745;32;33500;-83
2023/08/07 01:35:12;;;;;;;0.30;0.20;;;;;;;16.64;60.42;98348.31;4482917;32;34438;-84
2023/08/07 01:37:42;;;;;;;0.40;0.20;;;;;;;16.45;60.87;98347.03;4483362;32;35009;-85
2023/08/07 01:40:11;;;;;;;0.60;0.30;;;;;;;16.76;59.32;98345.41;4475409;32;34023;-87
2023/08/07 01:42:38;;;;;;;0.50;0.40;;;;;;;16.81;59.30;98342.69;4472867;32;34518;-87
2023/08/07 01:45:06;;;;;;;3.33;0.30;;;;;;;16.64;59.77;98331.75;4471069;32;33634;-87
2023/08/07 01:47:34;;;;;;;1.08;0.30;;;;;;;16.73;59.40;98328.91;4483333;32;34180;-82
2023/08/07 01:50:02;;;;;;;0.60;0.30;;;;;;;16.64;59.40;98348.31;4483976;32;34104;-85
2023/08/07 01:52:31;;;;;;;1.83;0.30;;;;;;;16.45;59.84;98344.44;4483744;32;34131;-86
2023/08/07 01:54:58;;;;;;;1.92;0.30;;;;;;;16.66;58.87;98340.41;4483113;32;33258;-86
2023/08/07 01:57:26;;;;;;;0.47;0.22;;;;;;;16.61;58.92;98339.69;4482328;32;35083;-85
2023/08/07 01:59:53;;;;;;;1.20;0.30;;;;;;;16.41;59.84;98341.03;4471516;32;33739;-86
2023/08/07 02:02:23;;;;;;;1.83;0.37;;;;;;;16.49;59.28;98346.06;4480709;31;34026;-85
2023/08/07 02:04:51;;;;;;;1.00;0.40;;;;;;;16.49;59.53;98349.53;4483670;32;33711;-86
2023/08/07 02:07:20;;;;;;;0.30;0.30;;;;;;;16.48;59.63;98336.50;4478055;32;33946;-86
2023/08/07 02:09:47;;;;;;;0.50;0.30;;;;;;;16.31;59.59;98344.75;4482028;32;34991;-86
2023/08/07 02:12:15;;;;;;;2.05;0.30;;;;;;;16.12;60.04;98344.31;4477121;32;33609;-85
2023/08/07 02:14:43;;;;;;;0.75;0.30;;;;;;;16.31;59.39;98344.75;4468214;32;33482;-85
2023/08/07 02:17:10;;;;;;;2.50;0.40;;;;;;;16.18;59.55;98348.56;4480142;32;33966;-86
2023/08/07 02:19:38;;;;;;;0.60;0.30;;;;;;;16.23;59.83;98341.47;4483087;32;34182;-84
2023/08/07 02:22:06;;;;;;;0.73;0.30;;;;;;;16.62;58.54;98342.25;4483845;32;33804;-85
2023/08/07 02:24:34;;;;;;;3.60;0.40;;;;;;;16.84;57.99;98344.38;4483559;32;33830;-86
2023/08/07 02:27:01;;;;;;;1.27;0.50;;;;;;;16.72;58.14;98340.28;4483655;32;35018;-86
2023/08/07 02:29:30;;;;;;;2.22;0.50;;;;;;;16.54;58.61;98355.53;4483400;32;34543;-85
2023/08/07 02:31:57;;;;;;;2.45;0.50;;;;;;;16.54;58.57;98352.03;4483592;32;34730;-84
2023/08/07 02:34:25;;;;;;;2.37;0.40;;;;;;;16.57;57.95;98348.50;4483609;32;33269;-85
2023/08/07 02:36:53;;;;;;;1.70;0.40;;;;;;;16.71;57.77;98349.03;4483574;32;34653;-86
2023/08/07 02:39:21;;;;;;;3.95;0.70;;;;;;;16.70;57.58;98329.81;4483407;32;34736;-87
2023/08/07 02:41:48;;;;;;;1.20;0.40;;;;;;;16.68;57.68;98341.25;4483579;32;34138;-87
2023/08/07 02:44:17;;;;;;;3.90;0.60;;;;;;;16.47;58.61;98340.84;4483403;32;33403;-86
2023/08/07 02:46:44;;;;;;;1.60;0.40;;;;;;;16.61;57.77;98331.81;4483659;32;33988;-86
2023/08/07 02:49:12;;;;;;;1.52;0.40;;;;;;;16.61;57.64;98342.28;4483191;32;34015;-85
2023/08/07 02:51:40;;;;;;;2.10;0.40;;;;;;;16.86;56.58;98343.44;4483493;32;33923;-86
2023/08/07 02:54:07;;;;;;;4.15;0.68;;;;;;;16.59;57.42;98367.63;4482936;32;33003;-86
2023/08/07 02:56:35;;;;;;;1.45;0.47;;;;;;;16.69;57.53;98356.03;4482861;32;34590;-86
2023/08/07 02:59:02;;;;;;;1.08;0.40;;;;;;;16.73;57.41;98357.69;4483215;32;33192;-84
2023/08/07 03:01:30;;;;;;;1.33;0.40;;;;;;;16.67;57.82;98363.09;4483459;32;34368;-86
2023/08/07 03:03:58;;;;;;;4.50;0.65;;;;;;;16.58;57.69;98358.06;4483367;32;34319;-86
2023/08/07 03:06:25;;;;;;;2.25;0.50;;;;;;;16.60;57.95;98353.66;4481823;31;33676;-85
2023/08/07 03:08:52;;;;;;;0.82;0.30;;;;;;;16.58;58.08;98366.78;4483491;32;34073;-85
2023/08/07 03:11:20;;;;;;;2.72;0.40;;;;;;;16.45;58.02;98368.84;4481126;32;33965;-85
2023/08/07 03:13:49;;;;;;;1.10;0.40;;;;;;;16.72;56.63;98359.44;4482957;32;34231;-86
2023/08/07 03:16:16;;;;;;;1.45;0.40;;;;;;;16.47;57.85;98368.78;4482128;31;33614;-83
2023/08/07 03:18:46;;;;;;;1.75;0.40;;;;;;;16.31;58.33;98365.69;4483162;32;32811;-85
2023/08/07 03:21:14;;;;;;;1.98;0.50;;;;;;;16.43;57.71;98370.63;4483076;32;34235;-85
2023/08/07 03:23:41;;;;;;;0.88;0.35;;;;;;;16.43;57.75;98370.63;4483071;32;33705;-85
2023/08/07 03:26:12;;;;;;;1.08;0.40;;;;;;;16.71;56.63;98359.50;4483067;32;33664;-85
2023/08/07 03:28:46;;;;;;;1.87;0.50;;;;;;;16.33;58.19;98363.91;4483168;32;33709;-85
2023/08/07 03:31:15;;;;;;;2.15;0.50;;;;;;;15.88;59.05;98361.41;4483012;32;34723;-86
2023/08/07 03:33:43;;;;;;;2.83;0.50;;;;;;;16.24;58.37;98362.34;4483096;32;33438;-84
2023/08/07 03:36:11;;;;;;;0.93;0.50;;;;;;;16.48;57.45;98362.69;4483184;32;33929;-85
2023/08/07 03:38:40;;;;;;;0.52;0.35;;;;;;;16.37;57.58;98367.31;4481485;32;35021;-86
2023/08/07 03:41:07;;;;;;;1.15;0.40;;;;;;;16.19;59.10;98376.41;4483318;32;33711;-85
2023/08/07 03:43:35;;;;;;;1.98;0.35;;;;;;;16.34;58.20;98370.84;4483278;32;32699;-86
2023/08/07 03:46:03;;;;;;;3.00;0.50;;;;;;;16.23;58.37;98385.91;4483053;32;34861;-86
2023/08/07 03:48:31;;;;;;;1.02;0.45;;;;;;;16.52;57.75;98385.25;4482834;32;35015;-85
2023/08/07 03:51:09;;;;;;;1.35;0.50;;;;;;;16.43;57.23;98380.22;4483203;32;34456;-87
2023/08/07 03:53:37;;;;;;;1.52;0.47;;;;;;;16.30;57.58;98375.28;4482771;32;33252;-85
2023/08/07 03:56:05;;;;;;;2.03;0.50;;;;;;;16.18;57.96;98386.03;4481454;32;34788;-86
2023/08/07 03:58:33;;;;;;;1.83;0.43;;;;;;;16.29;58.25;98393.63;4472026;32;34967;-86
2023/08/07 04:01:00;;;;;;;1.35;0.50;;;;;;;16.39;57.80;98394.28;4467419;32;33691;-86
2023/08/07 04:03:28;;;;;;;0.90;0.45;;;;;;;16.39;58.15;98396.88;4479926;32;34178;-87
2023/08/07 04:05:57;;;;;;;3.20;0.50;;;;;;;16.26;58.10;98404.16;4468797;31;34055;-85
2023/08/07 04:08:25;;;;;;;3.65;0.50;;;;;;;16.24;58.22;98406.78;4491520;31;34072;-83
2023/08/07 04:11:00;;;;;;;1.35;0.52;;;;;;;15.71;59.58;98407.94;4483593;32;34249;-86
2023/08/07 04:13:28;;;;;;;1.65;0.60;;;;;;;16.41;56.77;98409.03;4482350;32;33733;-85
2023/08/07 04:15:56;;;;;;;5.70;0.50;;;;;;;16.23;57.76;98410.31;4482095;31;34861;-86
2023/08/07 04:18:24;;;;;;;1.02;0.50;;;;;;;16.45;58.01;98410.69;4488423;31;33936;-85
2023/08/07 04:20:53;;;;;;;0.90;0.40;;;;;;;16.39;57.83;98408.22;4491100;31;33989;-87
2023/08/07 04:23:21;;;;;;;3.17;0.50;;;;;;;16.71;55.89;98412.69;4487424;31;33441;-85
2023/08/07 04:25:49;;;;;;;2.87;0.60;;;;;;;16.51;56.76;98414.91;4483538;32;33983;-83
2023/08/07 04:28:17;;;;;;;2.17;0.75;;;;;;;16.39;57.58;98412.59;4483123;32;33954;-85
2023/08/07 04:30:46;;;;;;;1.25;0.50;;;;;;;16.70;56.26;98410.09;4483511;32;33942;-87
2023/08/07 04:33:14;;;;;;;3.62;0.55;;;;;;;16.47;57.02;98421.13;4470640;31;33467;-84
2023/08/07 04:35:41;;;;;;;1.00;0.50;;;;;;;16.50;55.95;98421.91;4499077;31;33564;-84
2023/08/07 04:38:09;;;;;;;2.53;0.45;;;;;;;16.82;55.47;98415.09;4497548;31;34269;-86
2023/08/07 04:40:36;;;;;;;1.42;0.40;;;;;;;17.48;53.06;98403.75;4484203;32;33884;-86
2023/08/07 04:43:04;;;;;;;1.05;0.50;;;;;;;17.89;51.75;98407.03;4481726;32;34050;-84
2023/08/07 04:45:31;;;;;;;1.70;0.57;;;;;;;18.20;51.54;98417.47;4493662;31;33771;-85
2023/08/07 04:47:59;;;;;;;1.50;0.50;;;;;;;18.18;51.24;98411.41;4483268;31;34333;-85
2023/08/07 04:50:26;;;;;;;1.12;0.50;;;;;;;18.70;50.18;98404.56;4482795;32;33969;-85
2023/08/07 04:52:54;;;;;;;2.30;0.80;;;;;;;18.57;50.23;98415.47;4483429;32;33603;-86
2023/08/07 04:55:21;;;;;;;1.45;0.50;;;;;;;18.84;49.14;98409.38;4482660;32;34543;-85
2023/08/07 04:57:50;;;;;;;2.15;0.60;;;;;;;19.14;49.07;98414.53;4483594;32;33960;-86
2023/08/07 05:00:18;;;;;;;2.42;0.65;;;;;;;19.20;48.88;98409.03;4482547;32;33895;-85
2023/08/07 05:02:47;;;;;;;3.12;0.50;;;;;;;19.23;49.03;98406.31;4482319;32;33857;-86
2023/08/07 05:05:16;;;;;;;1.12;0.50;;;;;;;20.06;47.66;98408.63;4483895;32;34022;-84
2023/08/07 05:07:43;;;;;;;3.08;0.70;;;;;;;19.32;47.56;98411.25;4494699;31;33695;-85
2023/08/07 05:10:11;;;;;;;1.15;0.43;;;;;;;19.12;48.80;98404.03;4483545;31;34031;-87
2023/08/07 05:12:38;;;;;;;1.15;0.45;;;;;;;19.80;47.51;98399.06;4482865;32;33216;-87
2023/08/07 05:15:06;;;;;;;2.12;0.60;;;;;;;20.05;47.26;98399.87;4483524;32;34815;-85
2023/08/07 05:17:34;;;;;;;1.60;0.60;;;;;;;20.53;46.21;98414.72;4481754;32;34883;-86
2023/08/07 05:20:02;;;;;;;1.55;0.50;;;;;;;20.67;45.46;98408.91;4482794;32;33400;-86
2023/08/07 05:22:30;;;;;;;1.50;0.60;;;;;;;20.36;45.54;98417.97;4484079;32;33650;-86
2023/08/07 05:24:57;;;;;;;1.12;0.40;;;;;;;20.42;46.62;98425.66;4483565;32;33811;-86
2023/08/07 05:27:25;;;;;;;2.40;0.70;;;;;;;20.07;45.76;98421.72;4484164;32;34999;-85
2023/08/07 05:29:53;;;;;;;3.58;0.70;;;;;;;19.57;47.12;98423.53;4484423;32;33874;-86
2023/08/07 05:32:20;;;;;;;1.40;0.62;;;;;;;19.63;47.51;98428.63;4483865;32;34239;-86
2023/08/07 05:34:47;;;;;;;1.65;0.50;;;;;;;19.39;48.28;98438.16;4483957;32;33991;-86
2023/08/07 05:37:15;;;;;;;3.00;1.20;;;;;;;19.28;48.42;98437.69;4484372;32;34151;-86
2023/08/07 05:39:42;;;;;;;3.40;0.85;;;;;;;19.08;48.68;98444.47;4483911;32;32827;-85
2023/08/07 05:42:10;;;;;;;3.55;0.62;;;;;;;18.92;48.54;98444.13;4483099;32;33614;-85
2023/08/07 05:44:38;;;;;;;3.67;0.60;;;;;;;18.59;49.30;98445.16;4483168;32;33571;-85
2023/08/07 05:47:06;;;;;;;1.92;0.57;;;;;;;18.50;49.28;98445.44;4481384;32;33732;-85
2023/08/07 05:49:34;;;;;;;2.00;0.50;;;;;;;18.74;50.21;98447.31;4482611;32;34145;-86
2023/08/07 05:52:01;;;;;;;1.80;0.60;;;;;;;18.55;50.73;98457.50;4481176;32;33368;-86
2023/08/07 05:54:29;;;;;;;2.75;0.70;;;;;;;18.57;50.27;98463.59;4468394;32;34776;-85
2023/08/07 05:56:56;;;;;;;1.33;0.57;;;;;;;18.58;50.03;98456.56;4474347;32;34015;-86
2023/08/07 05:59:24;;;;;;;2.03;0.60;;;;;;;18.43;50.21;98471.88;4483381;32;33797;-86
2023/08/07 06:01:53;;;;;;;1.67;0.50;;;;;;;18.18;50.73;98470.88;4485219;31;34463;-86
2023/08/07 06:04:23;;;;;;;1.85;0.77;;;;;;;18.58;51.19;98467.06;4482817;31;33542;-87
2023/08/07 06:06:53;;;;;;;0.90;0.37;;;;;;;18.50;50.31;98469.94;4471981;32;33908;-87
2023/08/07 06:09:21;;;;;;;1.50;0.52;;;;;;;18.40;50.78;98469.34;4468411;32;33938;-85
2023/08/07 06:11:49;;;;;;;1.87;0.68;;;;;;;18.53;49.79;98475.09;4476151;31;33639;-84
2023/08/07 06:14:16;;;;;;;3.55;0.50;;;;;;;18.30;50.13;98475.78;4483684;32;35264;-84
2023/08/07 06:16:44;;;;;;;3.53;0.73;;;;;;;18.11;50.76;98480.72;4467869;32;34578;-85
2023/08/07 06:19:12;;;;;;;1.52;0.70;;;;;;;17.92;51.07;98490.00;4469772;32;34088;-84
2023/08/07 06:21:57;;;;;;;2.87;0.70;;;;;;;17.94;52.67;98475.91;4490229;31;33360;-82
2023/08/07 06:24:25;;;;;;;1.23;0.45;;;;;;;17.92;51.77;98480.38;4499632;31;33573;-84
2023/08/07 06:26:53;;;;;;;2.75;0.60;;;;;;;17.83;52.32;98488.47;4499830;31;34288;-85
2023/08/07 06:29:24;;;;;;;1.67;0.65;;;;;;;18.16;51.31;98477.94;4490907;31;34572;-85
2023/08/07 06:31:51;;;;;;;1.35;0.50;;;;;;;18.27;51.23;98483.75;4487799;31;33533;-84
2023/08/07 06:34:19;;;;;;;2.15;0.60;;;;;;;18.03;51.41;98484.44;4491797;31;34022;-86
2023/08/07 06:36:46;;;;;;;3.40;0.70;;;;;;;17.77;51.48;98496.53;4499630;31;34150;-86
2023/08/07 06:39:15;;;;;;;3.65;0.50;;;;;;;18.40;49.98;98492.09;4494984;31;34205;-85
2023/08/07 06:41:42;;;;;;;1.65;0.52;;;;;;;18.42;50.22;98496.41;4488507;31;33635;-85
2023/08/07 06:44:10;;;;;;;1.95;0.60;;;;;;;18.22;51.16;98485.63;4499322;31;34564;-87
2023/08/07 06:46:38;;;;;;;1.95;0.55;;;;;;;18.42;50.13;98493.78;4493910;31;34051;-81
2023/08/07 06:49:06;;;;;;;1.83;0.50;;;;;;;18.26;50.01;98496.88;4483428;31;33786;-85
2023/08/07 06:51:34;;;;;;;2.12;0.50;;;;;;;18.05;50.65;98495.75;4482190;32;33139;-85
2023/08/07 06:54:02;;;;;;;1.45;0.40;;;;;;;18.01;51.00;98500.22;4482455;32;33931;-85
2023/08/07 06:56:29;;;;;;;1.77;0.50;;;;;;;18.33;50.90;98504.53;4484718;31;34192;-86
2023/08/07 06:58:58;;;;;;;4.03;0.60;;;;;;;18.51;49.60;98510.16;4491132;31;33714;-86
2023/08/07 07:01:26;;;;;;;0.60;0.32;;;;;;;18.78;50.46;98500.63;4497116;31;33299;-88
2023/08/07 07:03:53;;;;;;;1.75;0.50;;;;;;;18.77;50.63;98502.38;4492547;31;34925;-89
2023/08/07 07:06:23;;;;;;;1.75;0.60;;;;;;;18.94;50.31;98510.59;4485055;31;33857;-84
2023/08/07 07:08:53;;;;;;;2.62;0.50;;;;;;;18.41;51.02;98505.19;4481625;32;33982;-82
2023/08/07 07:11:24;;;;;;;1.10;0.40;;;;;;;18.63;50.33;98515.03;4481570;32;33588;-82
2023/08/07 07:13:52;;;;;;;2.50;0.50;;;;;;;18.64;50.48;98519.41;4482842;32;33768;-84
2023/08/07 07:16:21;;;;;;;2.08;0.50;;;;;;;19.10;49.03;98515.37;4483009;32;34980;-85
2023/08/07 07:18:50;;;;;;;3.95;0.70;;;;;;;19.02;48.44;98512.13;4484922;31;33854;-82
2023/08/07 07:21:18;;;;;;;1.35;0.55;;;;;;;18.47;50.41;98512.88;4486801;31;33136;-84
2023/08/07 07:23:45;;;;;;;1.50;0.50;;;;;;;18.85;49.46;98517.91;4492470;31;34355;-84
2023/08/07 07:26:13;;;;;;;2.37;0.52;;;;;;;19.07;48.92;98516.31;4497394;31;34117;-86
2023/08/07 07:28:41;;;;;;;1.98;0.60;;;;;;;18.64;50.56;98522.03;4498566;31;34342;-83
2023/08/07 07:31:11;;;;;;;0.82;0.40;;;;;;;18.52;51.03;98514.50;4498852;31;33668;-85
2023/08/07 07:33:41;;;;;;;2.00;0.50;;;;;;;18.73;49.62;98516.50;4498960;31;33467;-83
2023/08/07 07:36:19;;;;;;;3.15;0.40;;;;;;;19.00;50.27;98519.19;4497433;31;33974;-84
2023/08/07 07:38:47;;;;;;;2.15;0.60;;;;;;;19.02;50.22;98520.03;4481675;31;33904;-85
2023/08/07 07:41:15;;;;;;;2.85;0.60;;;;;;;19.29;49.38;98516.50;4477982;31;33393;-84
2023/08/07 07:43:44;;;;;;;2.22;0.60;;;;;;;19.60;49.40;98516.31;4482463;32;34649;-85
2023/08/07 07:46:11;;;;;;;1.55;0.43;;;;;;;19.54;48.64;98515.66;4482821;32;33779;-84
2023/08/07 07:48:39;;;;;;;1.50;0.40;;;;;;;19.56;47.39;98519.09;4482570;32;33632;-84
2023/08/07 07:51:06;;;;;;;1.42;0.50;;;;;;;20.17;45.42;98515.19;4483042;32;34119;-84
2023/08/07 07:53:34;;;;;;;1.10;0.30;;;;;;;20.07;47.06;98523.47;4482688;32;34755;-84
2023/08/07 07:56:02;;;;;;;1.83;0.50;;;;;;;20.16;46.28;98521.38;4493837;31;33842;-84
2023/08/07 07:58:29;;;;;;;2.72;0.50;;;;;;;20.35;45.92;98520.72;4498544;31;33189;-86
2023/08/07 08:00:57;;;;;;;2.62;0.40;;;;;;;20.19;45.08;98536.19;4498643;31;33070;-85
2023/08/07 08:03:25;;;;;;;1.45;0.37;;;;;;;20.28;45.56;98529.75;4498586;31;33516;-83
2023/08/07 08:05:53;;;;;;;1.40;0.30;;;;;;;20.24;45.74;98533.41;4497870;31;34046;-85
2023/08/07 08:08:20;;;;;;;3.67;0.50;;;;;;;20.28;44.82;98535.88;4484141;31;33694;-84
2023/08/07 08:10:48;;;;;;;2.83;0.55;;;;;;;20.15;45.22;98547.75;4482111;31;33696;-84
2023/08/07 08:13:16;;;;;;;1.12;0.40;;;;;;;20.52;44.09;98546.44;4481057;32;33933;-84
2023/08/07 08:15:44;;;;;;;0.88;0.35;;;;;;;20.30;45.55;98555.06;4482373;31;33410;-81
2023/08/07 08:18:12;;;;;;;1.15;0.40;;;;;;;20.23;45.66;98556.25;4484183;31;34878;-87
2023/08/07 08:20:40;;;;;;;0.95;0.37;;;;;;;20.33;45.78;98565.50;4485358;31;33678;-86
2023/08/07 08:23:07;;;;;;;1.40;0.28;;;;;;;20.53;44.13;98566.56;4482664;32;34089;-86
2023/08/07 08:25:35;;;;;;;1.37;0.30;;;;;;;20.61;43.44;98567.19;4483004;31;34250;-84
2023/08/07 08:28:03;;;;;;;3.30;0.62;;;;;;;20.10;45.06;98570.75;4489991;31;34328;-85
2023/08/07 08:30:31;;;;;;;0.57;0.20;;;;;;;20.45;44.42;98581.78;4481889;32;33300;-85
2023/08/07 08:32:58;;;;;;;0.93;0.40;;;;;;;19.68;45.87;98587.09;4481880;32;34025;-83
2023/08/07 08:35:26;;;;;;;1.10;0.40;;;;;;;19.89;45.54;98581.13;4481911;32;35146;-75
2023/08/07 08:37:54;;;;;;;1.00;0.45;;;;;;;20.33;44.87;98586.56;4483660;31;33519;-83
2023/08/07 08:40:22;;;;;;;1.05;0.28;;;;;;;20.58;44.06;98581.31;4482030;31;33770;-87
2023/08/07 08:42:51;;;;;;;0.57;0.35;;;;;;;20.64;43.83;98585.47;4471330;32;34610;-84
2023/08/07 08:45:19;;;;;;;1.17;0.40;;;;;;;20.86;44.28;98589.00;4466375;32;34070;-86
2023/08/07 08:47:49;;;;;;;1.35;0.30;;;;;;;20.37;44.79;98593.44;4464849;32;34495;-82
2023/08/07 08:50:17;;;;;;;1.58;0.30;;;;;;;20.05;46.33;98606.91;4465113;32;32841;-82
2023/08/07 08:52:45;;;;;;;0.93;0.30;;;;;;;19.66;46.80;98605.56;4477838;32;33465;-84
2023/08/07 08:55:13;;;;;;;1.15;0.32;;;;;;;20.00;44.48;98614.06;4476197;31;33793;-86
2023/08/07 08:57:42;;;;;;;1.42;0.30;;;;;;;19.84;46.75;98619.84;4468417;32;33980;-85
2023/08/07 09:00:20;;;;;;;1.27;0.20;;;;;;;19.73;46.53;98614.09;4475852;32;34211;-84
2023/08/07 09:02:50;;;;;;;1.85;0.30;;;;;;;19.76;46.31;98621.87;4482411;32;32215;-83
2023/08/07 09:05:19;;;;;;;0.40;0.20;;;;;;;19.69;46.00;98610.69;4484236;32;34125;-84
2023/08/07 09:07:49;;;;;;;0.60;0.20;;;;;;;20.18;46.98;98618.69;4484409;32;33849;-83
2023/08/07 09:10:18;;;;;;;0.47;0.30;;;;;;;20.25;46.36;98616.72;4484053;31;34122;-83
2023/08/07 09:13:08;;;;;;;3.12;0.30;;;;;;;20.21;45.68;98623.84;4469807;31;34930;-85
2023/08/07 09:15:37;;;;;;;0.50;0.30;;;;;;;20.13;45.70;98628.53;4467310;32;33829;-85
2023/08/07 09:18:07;;;;;;;0.10;0.10;;;;;;;20.24;44.78;98613.22;4467277;32;34794;-83
2023/08/07 09:20:35;;;;;;;1.37;0.20;;;;;;;19.72;43.91;98625.53;4469977;31;33435;-83
2023/08/07 09:23:03;;;;;;;0.43;0.10;;;;;;;19.97;44.74;98624.72;4487034;31;33905;-82
2023/08/07 09:25:32;;;;;;;0.20;0.10;;;;;;;20.03;44.16;98625.34;4483835;32;35045;-87
2023/08/07 09:28:06;;;;;;;1.90;0.20;;;;;;;20.34;44.46;98622.53;4483861;32;33962;-83
2023/08/07 09:30:35;;;;;;;0.40;0.10;;;;;;;20.07;43.66;98620.84;4487106;31;33616;-85
2023/08/07 09:33:03;;;;;;;1.83;0.20;;;;;;;20.13;43.31;98633.81;4492873;31;34604;-84
2023/08/07 09:35:31;;;;;;;0.30;0.17;;;;;;;19.90;44.35;98634.59;4483573;32;34885;-84
2023/08/07 09:37:59;;;;;;;0.93;0.20;;;;;;;19.83;45.24;98636.56;4484009;32;33905;-85
2023/08/07 09:40:27;;;;;;;0.55;0.25;;;;;;;20.38;44.16;98632.03;4482655;32;33445;-84
2023/08/07 09:42:54;;;;;;;0.30;0.20;;;;;;;20.62;44.21;98645.25;4492073;31;33883;-83
2023/08/07 09:45:23;;;;;;;0.40;0.20;;;;;;;20.48;45.47;98634.31;4499727;31;34040;-83
2023/08/07 09:48:00;;;;;;;0.98;0.20;;;;;;;20.48;44.15;98639.59;4499547;31;33668;-83
2023/08/07 09:50:29;;;;;;;0.37;0.15;;;;;;;20.33;44.66;98662.91;4498428;31;33169;-88
2023/08/07 09:52:57;;;;;;;1.08;0.20;;;;;;;20.47;43.80;98645.78;4481010;31;33591;-84
2023/08/07 09:55:26;;;;;;;0.80;0.20;;;;;;;19.91;44.66;98642.41;4494915;31;33761;-85
2023/08/07 09:57:54;;;;;;;0.98;0.30;;;;;;;20.01;45.78;98653.50;4498081;31;34099;-78
2023/08/07 10:00:22;;;;;;;1.42;0.20;;;;;;;20.35;44.74;98660.25;4499627;31;33693;-84
2023/08/07 10:02:50;;;;;;;2.47;0.20;;;;;;;20.08;44.66;98657.66;4491574;31;34696;-83
2023/08/07 10:05:18;;;;;;;0.22;0.20;;;;;;;20.19;43.74;98667.78;4481854;32;33833;-78
2023/08/07 10:07:47;;;;;;;1.37;0.20;;;;;;;19.90;43.13;98643.34;4483438;32;34003;-83
2023/08/07 10:10:15;;;;;;;1.08;0.10;;;;;;;19.91;44.54;98658.19;4482589;32;33850;-83
2023/08/07 10:12:45;;;;;;;0.43;0.20;;;;;;;20.37;44.04;98650.50;4490383;31;34768;-83
2023/08/07 10:15:14;;;;;;;0.65;0.20;;;;;;;20.57;43.98;98647.19;4488283;31;34201;-80
2023/08/07 10:17:44;;;;;;;0.65;0.15;;;;;;;20.38;44.08;98647.84;4483744;32;33474;-84
2023/08/07 10:20:12;;;;;;;1.02;0.20;;;;;;;20.65;41.81;98651.28;4483735;32;33667;-83
2023/08/07 10:22:41;;;;;;;0.37;0.10;;;;;;;21.21;42.58;98650.03;4496381;31;33849;-84
2023/08/07 10:25:09;;;;;;;2.72;0.50;;;;;;;21.32;42.36;98647.00;4498675;31;33748;-84
2023/08/07 10:27:38;;;;;;;1.23;0.20;;;;;;;21.51;41.85;98655.94;4499455;31;33897;-84
2023/08/07 10:30:12;;;;;;;5.40;0.75;;;;;;;21.35;42.57;98654.81;4498126;31;33303;-84
2023/08/07 10:32:42;;;;;;;1.70;0.20;;;;;;;21.24;43.88;98657.84;4490722;31;34013;-84
2023/08/07 10:35:09;;;;;;;1.12;0.20;;;;;;;21.15;42.26;98663.47;4497262;31;33964;-83
2023/08/07 10:37:43;;;;;;;2.75;0.20;;;;;;;21.24;41.97;98668.38;4499066;31;33628;-83
2023/08/07 10:40:12;;;;;;;1.52;0.15;;;;;;;21.45;43.38;98658.84;4499369;31;33085;-83
2023/08/07 10:42:59;;;;;;;1.12;0.15;;;;;;;20.77;43.23;98670.19;4489806;31;33656;-83
2023/08/07 10:45:28;;;;;;;1.17;0.20;;;;;;;20.70;43.30;98660.78;4483587;31;34005;-83
2023/08/07 10:48:02;;;;;;;0.22;0.10;;;;;;;20.65;42.37;98659.19;4483586;32;33934;-84
2023/08/07 10:50:31;;;;;;;1.42;0.30;;;;;;;20.65;42.88;98672.34;4483413;32;34517;-82
2023/08/07 10:53:03;;;;;;;2.20;0.30;;;;;;;20.63;43.94;98658.38;4493802;31;33151;-84
2023/08/07 10:55:32;;;;;;;2.92;0.32;;;;;;;20.65;44.26;98671.50;4499370;31;34229;-84
2023/08/07 10:57:59;;;;;;;1.25;0.22;;;;;;;20.79;43.95;98673.59;4499197;31;34628;-85
2023/08/07 11:00:27;;;;;;;0.95;0.32;;;;;;;20.31;44.79;98677.91;4499313;31;33391;-84
2023/08/07 11:02:58;;;;;;;1.20;0.20;;;;;;;20.42;45.80;98683.66;4489369;31;33591;-84
2023/08/07 11:05:25;;;;;;;1.23;0.20;;;;;;;20.75;45.25;98687.81;4482218;32;34160;-85
2023/08/07 11:07:53;;;;;;;1.67;0.20;;;;;;;20.39;45.33;98696.06;4482133;32;33634;-83
2023/08/07 11:10:21;;;;;;;0.10;0.10;;;;;;;20.45;44.88;98695.84;4483321;32;33355;-84
2023/08/07 11:12:48;;;;;;;2.03;0.20;;;;;;;19.53;47.73;98703.25;4491048;31;33976;-85
2023/08/07 11:15:16;;;;;;;1.12;0.20;;;;;;;19.43;48.35;98705.28;4497034;31;34213;-84
2023/08/07 11:17:46;;;;;;;0.57;0.28;;;;;;;19.89;47.18;98704.75;4498987;31;33688;-85
2023/08/07 11:20:14;;;;;;;1.85;0.30;;;;;;;20.23;47.76;98713.28;4498852;31;34116;-84
2023/08/07 11:22:42;;;;;;;0.32;0.10;;;;;;;19.93;46.97;98709.00;4490962;31;33446;-84
2023/08/07 11:25:11;;;;;;;0.20;0.17;;;;;;;20.07;47.27;98712.94;4483405;32;34326;-83
2023/08/07 11:27:38;;;;;;;0.73;0.15;;;;;;;19.76;46.54;98724.44;4483011;32;34696;-85
2023/08/07 11:30:11;;;;;;;1.48;0.10;;;;;;;19.84;46.72;98724.22;4483009;31;32753;-85
2023/08/07 11:32:39;;;;;;;1.52;0.10;;;;;;;20.10;47.31;98720.75;4489270;31;33878;-84
2023/08/07 11:35:07;;;;;;;2.47;0.30;;;;;;;20.45;45.74;98729.22;4468185;31;34204;-86
2023/08/07 11:37:45;;;;;;;1.95;0.30;;;;;;;20.40;46.47;98722.34;4481987;32;34401;-86
2023/08/07 11:40:14;;;;;;;3.60;0.22;;;;;;;20.22;46.60;98738.75;4481853;32;33644;-85
2023/08/07 11:42:41;;;;;;;1.95;0.40;;;;;;;19.86;47.12;98727.66;4475096;31;33636;-85